sensor_id;sensor_type;location;lat;lon;timestamp;pressure;altitude;pressure_sealevel;temperature;humidity
56876;BME280;42622;49.972;8.452;2023-04-19T00:00:44;101471.31;;;9.84;100.00
56876;BME280;42622;49.972;8.452;2023-04-19T00:03:10;101477.47;;;9.84;100.00
56876;BME280;42622;49.972;8.452;2023-04-19T00:05:36;101471.38;;;9.82;100.00
56876;BME280;42622;49.972;8.452;2023-04-19T00:08:04;101470.53;;;9.81;100.00
56876;BME280;42622;49.972;8.452;2023-04-19T00:10:30;101469.69;;;9.81;100.00
56876;BME280;42622;49.972;8.452;2023-04-19T00:12:56;101465.34;;;9.80;100.00
56876;BME280;42622;49.972;8.452;2023-04-19T00:15:22;101466.28;;;9.79;100.00
56876;BME280;42622;49.972;8.452;2023-04-19T00:17:48;101465.38;;;9.78;100.00
56876;BME280;42622;49.972;8.452;2023-04-19T00:20:13;101462.94;;;9.75;100.00
56876;BME280;42622;49.972;8.452;2023-04-19T00:22:39;101460.28;;;9.75;100.00
56876;BME280;42622;49.972;8.452;2023-04-19T00:25:06;101462.03;;;9.75;100.00
56876;BME280;42622;49.972;8.452;2023-04-19T00:27:32;101460.34;;;9.74;100.00
56876;BME280;42622;49.972;8.452;2023-04-19T00:29:57;101458.53;;;9.74;100.00
56876;BME280;42622;49.972;8.452;2023-04-19T00:32:23;101454.19;;;9.73;100.00
56876;BME280;42622;49.972;8.452;2023-04-19T00:34:49;101456.00;;;9.73;100.00
56876;BME280;42622;49.972;8.452;2023-04-19T00:37:15;101454.28;;;9.72;100.00
56876;BME280;42622;49.972;8.452;2023-04-19T00:39:41;101456.13;;;9.70;100.00
56876;BME280;42622;49.972;8.452;2023-04-19T00:42:07;101450.94;;;9.68;100.00
56876;BME280;42622;49.972;8.452;2023-04-19T00:44:33;101451.78;;;9.69;100.00
56876;BME280;42622;49.972;8.452;2023-04-19T00:46:59;101449.16;;;9.69;100.00
56876;BME280;42622;49.972;8.452;2023-04-19T00:49:27;101452.56;;;9.71;100.00
56876;BME280;42622;49.972;8.452;2023-04-19T00:51:53;101444.72;;;9.69;100.00
56876;BME280;42622;49.972;8.452;2023-04-19T00:54:20;101449.22;;;9.67;100.00
56876;BME280;42622;49.972;8.452;2023-04-19T00:56:46;101442.22;;;9.66;100.00
56876;BME280;42622;49.972;8.452;2023-04-19T00:59:16;101443.16;;;9.65;100.00
56876;BME280;42622;49.972;8.452;2023-04-19T01:01:42;101435.31;;;9.64;100.00
56876;BME280;42622;49.972;8.452;2023-04-19T01:04:09;101436.31;;;9.61;100.00
56876;BME280;42622;49.972;8.452;2023-04-19T01:06:35;101435.44;;;9.61;100.00
56876;BME280;42622;49.972;8.452;2023-04-19T01:09:02;101439.81;;;9.62;100.00
56876;BME280;42622;49.972;8.452;2023-04-19T01:11:29;101436.31;;;9.61;100.00
56876;BME280;42622;49.972;8.452;2023-04-19T01:13:56;101438.88;;;9.63;100.00
56876;BME280;42622;49.972;8.452;2023-04-19T01:16:25;101435.31;;;9.64;100.00
56876;BME280;42622;49.972;8.452;2023-04-19T01:18:51;101436.31;;;9.61;100.00
56876;BME280;42622;49.972;8.452;2023-04-19T01:21:17;101431.03;;;9.61;100.00
56876;BME280;42622;49.972;8.452;2023-04-19T01:23:43;101427.59;;;9.59;100.00
56876;BME280;42622;49.972;8.452;2023-04-19T01:26:09;101427.59;;;9.59;100.00
56876;BME280;42622;49.972;8.452;2023-04-19T01:28:35;101419.75;;;9.57;100.00
56876;BME280;42622;49.972;8.452;2023-04-19T01:31:01;101426.81;;;9.57;100.00
56876;BME280;42622;49.972;8.452;2023-04-19T01:33:27;101417.19;;;9.56;100.00
56876;BME280;42622;49.972;8.452;2023-04-19T01:35:53;101415.50;;;9.55;100.00
56876;BME280;42622;49.972;8.452;2023-04-19T01:38:18;101418.19;;;9.53;100.00
56876;BME280;42622;49.972;8.452;2023-04-19T01:40:44;101411.19;;;9.52;100.00
56876;BME280;42622;49.972;8.452;2023-04-19T01:43:13;101410.50;;;9.49;100.00
56876;BME280;42622;49.972;8.452;2023-04-19T01:45:41;101407.94;;;9.47;100.00
56876;BME280;42622;49.972;8.452;2023-04-19T01:48:07;101407.06;;;9.47;100.00
56876;BME280;42622;49.972;8.452;2023-04-19T01:50:33;101404.41;;;9.47;100.00
56876;BME280;42622;49.972;8.452;2023-04-19T01:52:59;101402.81;;;9.44;100.00
56876;BME280;42622;49.972;8.452;2023-04-19T01:55:25;101402.00;;;9.42;100.00
56876;BME280;42622;49.972;8.452;2023-04-19T01:57:51;101397.66;;;9.41;100.00
56876;BME280;42622;49.972;8.452;2023-04-19T02:00:18;101397.81;;;9.38;100.00
56876;BME280;42622;49.972;8.452;2023-04-19T02:02:44;101391.72;;;9.36;100.00
56876;BME280;42622;49.972;8.452;2023-04-19T02:05:10;101386.53;;;9.34;100.00
56876;BME280;42622;49.972;8.452;2023-04-19T02:07:36;101392.66;;;9.35;100.00
56876;BME280;42622;49.972;8.452;2023-04-19T02:10:03;101394.53;;;9.33;100.00
56876;BME280;42622;49.972;8.452;2023-04-19T02:12:32;101384.91;;;9.32;100.00
56876;BME280;42622;49.972;8.452;2023-04-19T02:14:59;101383.19;;;9.31;100.00
56876;BME280;42622;49.972;8.452;2023-04-19T02:17:27;101374.44;;;9.30;100.00
56876;BME280;42622;49.972;8.452;2023-04-19T02:19:53;101376.06;;;9.33;100.00
56876;BME280;42622;49.972;8.452;2023-04-19T02:22:19;101376.06;;;9.33;100.00
56876;BME280;42622;49.972;8.452;2023-04-19T02:24:46;101376.97;;;9.32;100.00
56876;BME280;42622;49.972;8.452;2023-04-19T02:27:13;101385.84;;;9.31;100.00
56876;BME280;42622;49.972;8.452;2023-04-19T02:29:39;101380.69;;;9.28;100.00
56876;BME280;42622;49.972;8.452;2023-04-19T02:32:05;101373.72;;;9.27;100.00
56876;BME280;42622;49.972;8.452;2023-04-19T02:34:34;101371.94;;;9.27;100.00
56876;BME280;42622;49.972;8.452;2023-04-19T02:37:00;101373.72;;;9.27;100.00
56876;BME280;42622;49.972;8.452;2023-04-19T02:39:26;101371.13;;;9.25;100.00
56876;BME280;42622;49.972;8.452;2023-04-19T02:41:53;101373.84;;;9.24;100.00
56876;BME280;42622;49.972;8.452;2023-04-19T02:44:19;101372.34;;;9.18;100.00
56876;BME280;42622;49.972;8.452;2023-04-19T02:46:52;101369.72;;;9.18;100.00
56876;BME280;42622;49.972;8.452;2023-04-19T02:49:19;101367.16;;;9.17;100.00
56876;BME280;42622;49.972;8.452;2023-04-19T02:51:46;101375.06;;;9.17;100.00
56876;BME280;42622;49.972;8.452;2023-04-19T02:54:12;101356.75;;;9.14;100.00
56876;BME280;42622;49.972;8.452;2023-04-19T02:56:38;101363.81;;;9.13;100.00
56876;BME280;42622;49.972;8.452;2023-04-19T02:59:04;101355.19;;;9.09;100.00
56876;BME280;42622;49.972;8.452;2023-04-19T03:01:31;101362.31;;;9.07;100.00
56876;BME280;42622;49.972;8.452;2023-04-19T03:03:57;101365.88;;;9.06;100.00
56876;BME280;42622;49.972;8.452;2023-04-19T03:06:23;101360.75;;;9.03;100.00
56876;BME280;42622;49.972;8.452;2023-04-19T03:08:49;101359.88;;;9.03;100.00
56876;BME280;42622;49.972;8.452;2023-04-19T03:11:16;101357.34;;;9.01;100.00
56876;BME280;42622;49.972;8.452;2023-04-19T03:13:42;101357.34;;;9.01;100.00
56876;BME280;42622;49.972;8.452;2023-04-19T03:16:08;101353.97;;;8.98;100.00
56876;BME280;42622;49.972;8.452;2023-04-19T03:18:35;101353.19;;;8.96;100.00
56876;BME280;42622;49.972;8.452;2023-04-19T03:21:02;101347.06;;;8.95;100.00
56876;BME280;42622;49.972;8.452;2023-04-19T03:23:29;101349.84;;;8.92;100.00
56876;BME280;42622;49.972;8.452;2023-04-19T03:25:55;101340.41;;;8.86;100.00
56876;BME280;42622;49.972;8.452;2023-04-19T03:28:21;101343.34;;;8.80;100.00
56876;BME280;42622;49.972;8.452;2023-04-19T03:30:47;101341.00;;;8.74;100.00
56876;BME280;42622;49.972;8.452;2023-04-19T03:33:13;101343.84;;;8.70;100.00
56876;BME280;42622;49.972;8.452;2023-04-19T03:35:38;101344.88;;;8.66;100.00
56876;BME280;42622;49.972;8.452;2023-04-19T03:38:05;101331.19;;;8.57;100.00
56876;BME280;42622;49.972;8.452;2023-04-19T03:40:36;101328.78;;;8.53;100.00
56876;BME280;42622;49.972;8.452;2023-04-19T03:43:03;101334.09;;;8.51;100.00
56876;BME280;42622;49.972;8.452;2023-04-19T03:45:29;101326.19;;;8.51;100.00
56876;BME280;42622;49.972;8.452;2023-04-19T03:47:55;101326.19;;;8.51;100.00
56876;BME280;42622;49.972;8.452;2023-04-19T03:50:21;101326.19;;;8.51;100.00
56876;BME280;42622;49.972;8.452;2023-04-19T03:52:47;101325.44;;;8.49;100.00
56876;BME280;42622;49.972;8.452;2023-04-19T03:55:12;101322.06;;;8.46;100.00
56876;BME280;42622;49.972;8.452;2023-04-19T03:57:38;101316.84;;;8.44;100.00
56876;BME280;42622;49.972;8.452;2023-04-19T04:00:06;101317.03;;;8.41;100.00
56876;BME280;42622;49.972;8.452;2023-04-19T04:02:32;101324.00;;;8.42;100.00
56876;BME280;42622;49.972;8.452;2023-04-19T04:05:01;101324.94;;;8.41;100.00
56876;BME280;42622;49.972;8.452;2023-04-19T04:07:26;101326.63;;;8.42;100.00
56876;BME280;42622;49.972;8.452;2023-04-19T04:09:52;101316.09;;;8.42;100.00
56876;BME280;42622;49.972;8.452;2023-04-19T04:12:18;101325.81;;;8.40;100.00
56876;BME280;42622;49.972;8.452;2023-04-19T04:14:43;101331.09;;;8.40;100.00
56876;BME280;42622;49.972;8.452;2023-04-19T04:17:09;101330.31;;;8.38;100.00
56876;BME280;42622;49.972;8.452;2023-04-19T04:19:35;101332.03;;;8.39;100.00
56876;BME280;42622;49.972;8.452;2023-04-19T04:22:01;101333.72;;;8.40;100.00
56876;BME280;42622;49.972;8.452;2023-04-19T04:24:26;101331.81;;;8.44;100.00
56876;BME280;42622;49.972;8.452;2023-04-19T04:26:52;101329.91;;;8.47;100.00
56876;BME280;42622;49.972;8.452;2023-04-19T04:29:18;101333.34;;;8.49;100.00
56876;BME280;42622;49.972;8.452;2023-04-19T04:31:43;101345.72;;;8.47;100.00
56876;BME280;42622;49.972;8.452;2023-04-19T04:34:09;101338.66;;;8.48;100.00
56876;BME280;42622;49.972;8.452;2023-04-19T04:36:35;101334.25;;;8.48;100.00
56876;BME280;42622;49.972;8.452;2023-04-19T04:39:03;101336.75;;;8.51;100.00
56876;BME280;42622;49.972;8.452;2023-04-19T04:41:30;101340.25;;;8.52;100.00
56876;BME280;42622;49.972;8.452;2023-04-19T04:43:59;101327.94;;;8.52;100.00
56876;BME280;42622;49.972;8.452;2023-04-19T04:46:25;101329.78;;;8.50;100.00
56876;BME280;42622;49.972;8.452;2023-04-19T04:48:52;101336.75;;;8.51;100.00
56876;BME280;42622;49.972;8.452;2023-04-19T04:51:18;101332.13;;;8.56;100.00
56876;BME280;42622;49.972;8.452;2023-04-19T04:53:44;101330.94;;;8.64;100.00
56876;BME280;42622;49.972;8.452;2023-04-19T04:56:10;101331.66;;;8.67;100.00
56876;BME280;42622;49.972;8.452;2023-04-19T04:58:35;101327.09;;;8.71;100.00
56876;BME280;42622;49.972;8.452;2023-04-19T05:01:02;101330.34;;;8.76;100.00
56876;BME280;42622;49.972;8.452;2023-04-19T05:03:27;101326.75;;;8.78;100.00
56876;BME280;42622;49.972;8.452;2023-04-19T05:05:53;101326.50;;;8.83;100.00
56876;BME280;42622;49.972;8.452;2023-04-19T05:08:19;101330.66;;;8.89;100.00
56876;BME280;42622;49.972;8.452;2023-04-19T05:10:44;101330.31;;;8.96;100.00
56876;BME280;42622;49.972;8.452;2023-04-19T05:13:10;101323.81;;;9.03;100.00
56876;BME280;42622;49.972;8.452;2023-04-19T05:15:36;101320.91;;;9.09;100.00
56876;BME280;42622;49.972;8.452;2023-04-19T05:18:02;101320.66;;;9.14;100.00
56876;BME280;42622;49.972;8.452;2023-04-19T05:20:29;101319.69;;;9.17;100.00
56876;BME280;42622;49.972;8.452;2023-04-19T05:22:59;101320.28;;;9.22;100.00
56876;BME280;42622;49.972;8.452;2023-04-19T05:25:26;101323.66;;;9.25;100.00
56876;BME280;42622;49.972;8.452;2023-04-19T05:27:52;101319.06;;;9.29;100.00
56876;BME280;42622;49.972;8.452;2023-04-19T05:30:18;101316.38;;;9.30;100.00
56876;BME280;42622;49.972;8.452;2023-04-19T05:32:44;101324.22;;;9.32;100.00
56876;BME280;42622;49.972;8.452;2023-04-19T05:35:10;101324.22;;;9.32;100.00
56876;BME280;42622;49.972;8.452;2023-04-19T05:37:37;101317.09;;;9.34;100.00
56876;BME280;42622;49.972;8.452;2023-04-19T05:40:04;101313.44;;;9.37;100.00
56876;BME280;42622;49.972;8.452;2023-04-19T05:42:34;101314.06;;;9.42;100.00
56876;BME280;42622;49.972;8.452;2023-04-19T05:45:00;101319.19;;;9.45;100.00
56876;BME280;42622;49.972;8.452;2023-04-19T05:47:26;101316.47;;;9.46;100.00
56876;BME280;42622;49.972;8.452;2023-04-19T05:49:51;101306.63;;;9.50;100.00
56876;BME280;42622;49.972;8.452;2023-04-19T05:52:17;101304.69;;;9.53;100.00
56876;BME280;42622;49.972;8.452;2023-04-19T05:54:43;101302.69;;;9.58;100.00
56876;BME280;42622;49.972;8.452;2023-04-19T05:57:09;101297.72;;;9.70;100.00
56876;BME280;42622;49.972;8.452;2023-04-19T05:59:35;101309.38;;;9.83;100.00
56876;BME280;42622;49.972;8.452;2023-04-19T06:02:00;101311.88;;;10.03;100.00
56876;BME280;42622;49.972;8.452;2023-04-19T06:04:26;101305.47;;;10.25;100.00
56876;BME280;42622;49.972;8.452;2023-04-19T06:06:52;101318.50;;;10.45;100.00
56876;BME280;42622;49.972;8.452;2023-04-19T06:09:18;101308.38;;;10.53;100.00
56876;BME280;42622;49.972;8.452;2023-04-19T06:11:45;101313.25;;;10.61;100.00
56876;BME280;42622;49.972;8.452;2023-04-19T06:14:11;101304.22;;;10.81;100.00
56876;BME280;42622;49.972;8.452;2023-04-19T06:16:39;101305.09;;;10.97;100.00
56876;BME280;42622;49.972;8.452;2023-04-19T06:19:06;101322.59;;;11.16;100.00
56876;BME280;42622;49.972;8.452;2023-04-19T06:21:35;101319.75;;;11.51;100.00
56876;BME280;42622;49.972;8.452;2023-04-19T06:24:01;101315.81;;;11.58;100.00
56876;BME280;42622;49.972;8.452;2023-04-19T06:26:27;101317.03;;;11.52;100.00
56876;BME280;42622;49.972;8.452;2023-04-19T06:28:53;101317.94;;;11.67;100.00
56876;BME280;42622;49.972;8.452;2023-04-19T06:31:18;101323.94;;;12.15;100.00
56876;BME280;42622;49.972;8.452;2023-04-19T06:33:44;101317.88;;;12.99;100.00
56876;BME280;42622;49.972;8.452;2023-04-19T06:36:10;101325.63;;;13.16;100.00
56876;BME280;42622;49.972;8.452;2023-04-19T06:38:36;101335.53;;;12.71;100.00
56876;BME280;42622;49.972;8.452;2023-04-19T06:41:06;101334.47;;;12.16;100.00
56876;BME280;42622;49.972;8.452;2023-04-19T06:43:33;101335.91;;;11.76;100.00
56876;BME280;42622;49.972;8.452;2023-04-19T06:45:59;101341.72;;;11.37;100.00
56876;BME280;42622;49.972;8.452;2023-04-19T06:48:25;101331.75;;;11.10;100.00
56876;BME280;42622;49.972;8.452;2023-04-19T06:50:53;101328.16;;;10.95;100.00
56876;BME280;42622;49.972;8.452;2023-04-19T06:53:19;101333.09;;;10.86;100.00
56876;BME280;42622;49.972;8.452;2023-04-19T06:55:45;101343.16;;;10.79;100.00
56876;BME280;42622;49.972;8.452;2023-04-19T06:58:11;101327.44;;;10.76;100.00
56876;BME280;42622;49.972;8.452;2023-04-19T07:00:38;101324.91;;;10.74;100.00
56876;BME280;42622;49.972;8.452;2023-04-19T07:03:04;101332.13;;;10.71;100.00
56876;BME280;42622;49.972;8.452;2023-04-19T07:05:30;101325.91;;;10.72;100.00
56876;BME280;42622;49.972;8.452;2023-04-19T07:07:57;101334.78;;;10.71;100.00
56876;BME280;42622;49.972;8.452;2023-04-19T07:10:23;101328.72;;;10.69;100.00
56876;BME280;42622;49.972;8.452;2023-04-19T07:12:50;101327.75;;;10.70;100.00
56876;BME280;42622;49.972;8.452;2023-04-19T07:15:16;101332.13;;;10.71;100.00
56876;BME280;42622;49.972;8.452;2023-04-19T07:17:42;101319.41;;;10.77;100.00
56876;BME280;42622;49.972;8.452;2023-04-19T07:20:08;101324.63;;;10.79;100.00
56876;BME280;42622;49.972;8.452;2023-04-19T07:22:34;101324.00;;;10.74;100.00
56876;BME280;42622;49.972;8.452;2023-04-19T07:25:00;101313.00;;;10.66;100.00
56876;BME280;42622;49.972;8.452;2023-04-19T07:27:26;101328.88;;;10.66;100.00
56876;BME280;42622;49.972;8.452;2023-04-19T07:29:52;101315.06;;;10.61;100.00
56876;BME280;42622;49.972;8.452;2023-04-19T07:32:18;101326.75;;;10.57;100.00
56876;BME280;42622;49.972;8.452;2023-04-19T07:34:45;101316.47;;;10.50;100.00
56876;BME280;42622;49.972;8.452;2023-04-19T07:37:11;101319.13;;;10.50;100.00
56876;BME280;42622;49.972;8.452;2023-04-19T07:39:40;101322.53;;;10.52;100.00
56876;BME280;42622;49.972;8.452;2023-04-19T07:42:05;101311.03;;;10.53;100.00
56876;BME280;42622;49.972;8.452;2023-04-19T07:44:31;101311.03;;;10.53;100.00
56876;BME280;42622;49.972;8.452;2023-04-19T07:46:57;101302.84;;;10.58;100.00
56876;BME280;42622;49.972;8.452;2023-04-19T07:49:23;101314.09;;;10.62;100.00
56876;BME280;42622;49.972;8.452;2023-04-19T07:51:50;101307.13;;;10.61;100.00
56876;BME280;42622;49.972;8.452;2023-04-19T07:54:16;101306.97;;;10.64;100.00
56876;BME280;42622;49.972;8.452;2023-04-19T07:56:45;101301.41;;;10.68;100.00
56876;BME280;42622;49.972;8.452;2023-04-19T07:59:10;101293.41;;;10.86;100.00
56876;BME280;42622;49.972;8.452;2023-04-19T08:01:36;101301.34;;;11.01;100.00
56876;BME280;42622;49.972;8.452;2023-04-19T08:04:02;101304.25;;;11.13;100.00
56876;BME280;42622;49.972;8.452;2023-04-19T08:06:28;101295.97;;;11.19;100.00
56876;BME280;42622;49.972;8.452;2023-04-19T08:08:54;101305.53;;;11.21;100.00
56876;BME280;42622;49.972;8.452;2023-04-19T08:11:20;101308.50;;;11.15;100.00
56876;BME280;42622;49.972;8.452;2023-04-19T08:13:46;101303.56;;;11.09;100.00
56876;BME280;42622;49.972;8.452;2023-04-19T08:16:12;101302.53;;;11.12;100.00
56876;BME280;42622;49.972;8.452;2023-04-19T08:18:37;101301.19;;;11.20;100.00
56876;BME280;42622;49.972;8.452;2023-04-19T08:21:03;101298.44;;;11.22;100.00
56876;BME280;42622;49.972;8.452;2023-04-19T08:23:29;101294.50;;;11.29;100.00
56876;BME280;42622;49.972;8.452;2023-04-19T08:25:55;101291.34;;;11.38;100.00
56876;BME280;42622;49.972;8.452;2023-04-19T08:28:22;101291.41;;;11.53;100.00
56876;BME280;42622;49.972;8.452;2023-04-19T08:30:47;101290.94;;;11.60;100.00
56876;BME280;42622;49.972;8.452;2023-04-19T08:33:13;101292.56;;;11.63;100.00
56876;BME280;42622;49.972;8.452;2023-04-19T08:35:40;101296.69;;;11.53;100.00
56876;BME280;42622;49.972;8.452;2023-04-19T08:38:07;101291.06;;;11.43;100.00
56876;BME280;42622;49.972;8.452;2023-04-19T08:40:34;101290.72;;;11.49;100.00
56876;BME280;42622;49.972;8.452;2023-04-19T08:43:04;101296.13;;;11.62;100.00
56876;BME280;42622;49.972;8.452;2023-04-19T08:45:32;101293.53;;;11.76;100.00
56876;BME280;42622;49.972;8.452;2023-04-19T08:48:00;101289.63;;;11.98;100.00
56876;BME280;42622;49.972;8.452;2023-04-19T08:50:26;101274.25;;;12.18;100.00
56876;BME280;42622;49.972;8.452;2023-04-19T08:52:52;101286.28;;;12.38;100.00
56876;BME280;42622;49.972;8.452;2023-04-19T08:55:19;101280.22;;;12.51;100.00
56876;BME280;42622;49.972;8.452;2023-04-19T08:57:45;101284.00;;;12.47;100.00
56876;BME280;42622;49.972;8.452;2023-04-19T09:00:11;101278.88;;;12.29;100.00
56876;BME280;42622;49.972;8.452;2023-04-19T09:02:51;101280.22;;;12.22;100.00
56876;BME280;42622;49.972;8.452;2023-04-19T09:05:19;101277.13;;;12.30;100.00
56876;BME280;42622;49.972;8.452;2023-04-19T09:07:46;101271.16;;;12.40;100.00
56876;BME280;42622;49.972;8.452;2023-04-19T09:10:15;101273.22;;;12.50;100.00
56876;BME280;42622;49.972;8.452;2023-04-19T09:13:02;101273.78;;;12.69;99.61
56876;BME280;42622;49.972;8.452;2023-04-19T09:15:40;101271.34;;;12.52;97.40
56876;BME280;42622;49.972;8.452;2023-04-19T09:18:09;101268.88;;;12.34;97.15
56876;BME280;42622;49.972;8.452;2023-04-19T09:20:38;101277.13;;;12.30;97.68
56876;BME280;42622;49.972;8.452;2023-04-19T09:23:09;101268.03;;;12.34;97.94
56876;BME280;42622;49.972;8.452;2023-04-19T09:25:38;101267.25;;;12.46;98.17
56876;BME280;42622;49.972;8.452;2023-04-19T09:28:12;101257.97;;;12.53;98.01
56876;BME280;42622;49.972;8.452;2023-04-19T09:30:39;101256.91;;;12.56;97.24
56876;BME280;42622;49.972;8.452;2023-04-19T09:33:07;101258.63;;;12.57;96.67
56876;BME280;42622;49.972;8.452;2023-04-19T09:35:45;101252.75;;;12.66;96.71
56876;BME280;42622;49.972;8.452;2023-04-19T09:38:15;101244.28;;;12.74;96.04
56876;BME280;42622;49.972;8.452;2023-04-19T09:40:41;101253.44;;;12.82;96.01
56876;BME280;42622;49.972;8.452;2023-04-19T09:43:08;101259.59;;;12.97;94.89
56876;BME280;42622;49.972;8.452;2023-04-19T09:45:44;101254.00;;;13.02;94.20
56876;BME280;42622;49.972;8.452;2023-04-19T09:48:12;101245.72;;;13.06;92.42
56876;BME280;42622;49.972;8.452;2023-04-19T09:51:01;101243.72;;;13.10;92.37
56876;BME280;42622;49.972;8.452;2023-04-19T09:53:30;101240.47;;;13.19;92.33
56876;BME280;42622;49.972;8.452;2023-04-19T09:55:58;101233.63;;;13.29;90.76
56876;BME280;42622;49.972;8.452;2023-04-19T09:58:24;101228.06;;;13.47;90.70
56876;BME280;42622;49.972;8.452;2023-04-19T10:00:52;101226.56;;;13.55;88.25
56876;BME280;42622;49.972;8.452;2023-04-19T10:03:21;101216.19;;;13.65;89.25
56876;BME280;42622;49.972;8.452;2023-04-19T10:05:50;101206.63;;;14.01;89.65
56876;BME280;42622;49.972;8.452;2023-04-19T10:08:17;101205.06;;;14.48;87.25
56876;BME280;42622;49.972;8.452;2023-04-19T10:10:45;101204.34;;;14.20;82.16
56876;BME280;42622;49.972;8.452;2023-04-19T10:13:18;101212.97;;;14.24;85.80
56876;BME280;42622;49.972;8.452;2023-04-19T10:15:48;101204.69;;;14.78;84.99
56876;BME280;42622;49.972;8.452;2023-04-19T10:18:14;101203.84;;;15.01;80.98
56876;BME280;42622;49.972;8.452;2023-04-19T10:20:52;101197.09;;;15.44;79.98
56876;BME280;42622;49.972;8.452;2023-04-19T10:23:23;101190.34;;;15.51;77.92
56876;BME280;42622;49.972;8.452;2023-04-19T10:25:55;101187.38;;;15.67;79.44
56876;BME280;42622;49.972;8.452;2023-04-19T10:28:22;101176.28;;;16.07;77.62
56876;BME280;42622;49.972;8.452;2023-04-19T10:31:03;101183.56;;;16.27;75.92
56876;BME280;42622;49.972;8.452;2023-04-19T10:33:36;101177.97;;;16.08;73.44
56876;BME280;42622;49.972;8.452;2023-04-19T10:36:03;101179.56;;;15.99;74.66
56876;BME280;42622;49.972;8.452;2023-04-19T10:38:45;101183.16;;;15.75;73.43
56876;BME280;42622;49.972;8.452;2023-04-19T10:41:17;101177.22;;;15.72;73.93
56876;BME280;42622;49.972;8.452;2023-04-19T10:44:08;101182.81;;;16.14;73.16
56876;BME280;42622;49.972;8.452;2023-04-19T10:49:03;101178.44;;;16.24;67.42
56876;BME280;42622;49.972;8.452;2023-04-19T10:51:36;101163.53;;;16.10;63.06
56876;BME280;42622;49.972;8.452;2023-04-19T10:54:33;101171.66;;;16.20;62.56
56876;BME280;42622;49.972;8.452;2023-04-19T10:57:09;101166.16;;;16.55;57.09
56876;BME280;42622;49.972;8.452;2023-04-19T10:59:39;101157.91;;;16.58;54.56
56876;BME280;42622;49.972;8.452;2023-04-19T11:07:17;101154.81;;;15.97;49.91
56876;BME280;42622;49.972;8.452;2023-04-19T11:09:46;101144.88;;;15.99;51.19
56876;BME280;42622;49.972;8.452;2023-04-19T11:12:18;101150.31;;;15.75;51.73
56876;BME280;42622;49.972;8.452;2023-04-19T11:14:51;101156.50;;;15.75;51.91
56876;BME280;42622;49.972;8.452;2023-04-19T11:17:28;101145.25;;;15.94;51.89
56876;BME280;42622;49.972;8.452;2023-04-19T11:22:32;101143.91;;;15.77;50.43
56876;BME280;42622;49.972;8.452;2023-04-19T11:25:20;101139.91;;;15.94;51.60
56876;BME280;42622;49.972;8.452;2023-04-19T11:27:51;101130.06;;;16.17;51.78
56876;BME280;42622;49.972;8.452;2023-04-19T11:30:21;101136.84;;;16.44;51.85
56876;BME280;42622;49.972;8.452;2023-04-19T11:32:56;101125.63;;;16.50;48.35
56876;BME280;42622;49.972;8.452;2023-04-19T11:35:27;101122.50;;;16.45;47.37
56876;BME280;42622;49.972;8.452;2023-04-19T11:37:57;101121.13;;;16.62;47.78
56876;BME280;42622;49.972;8.452;2023-04-19T11:40:27;101109.38;;;16.53;45.77
56876;BME280;42622;49.972;8.452;2023-04-19T11:42:56;101114.38;;;16.46;45.53
56876;BME280;42622;49.972;8.452;2023-04-19T11:45:28;101126.97;;;16.56;44.97
56876;BME280;42622;49.972;8.452;2023-04-19T11:47:56;101110.84;;;16.57;43.04
56876;BME280;42622;49.972;8.452;2023-04-19T11:50:39;101104.84;;;16.76;42.92
56876;BME280;42622;49.972;8.452;2023-04-19T11:53:15;101104.00;;;16.76;42.19
56876;BME280;42622;49.972;8.452;2023-04-19T11:55:54;101094.72;;;16.91;41.20
56876;BME280;42622;49.972;8.452;2023-04-19T12:01:07;101079.28;;;17.15;41.69
56876;BME280;42622;49.972;8.452;2023-04-19T12:03:51;101070.84;;;17.10;40.90
56876;BME280;42622;49.972;8.452;2023-04-19T12:06:27;101075.19;;;16.90;41.53
56876;BME280;42622;49.972;8.452;2023-04-19T12:08:56;101069.00;;;17.11;43.19
56876;BME280;42622;49.972;8.452;2023-04-19T12:11:25;101082.97;;;17.24;40.26
56876;BME280;42622;49.972;8.452;2023-04-19T12:14:17;101078.03;;;16.99;38.33
56876;BME280;42622;49.972;8.452;2023-04-19T12:17:25;101071.75;;;17.00;39.17
56876;BME280;42622;49.972;8.452;2023-04-19T12:19:51;101073.03;;;17.05;39.04
56876;BME280;42622;49.972;8.452;2023-04-19T12:22:18;101056.50;;;17.11;39.33
56876;BME280;42622;49.972;8.452;2023-04-19T12:24:52;101054.84;;;17.20;40.21
56876;BME280;42622;49.972;8.452;2023-04-19T12:27:18;101051.63;;;17.47;40.23
56876;BME280;42622;49.972;8.452;2023-04-19T12:29:44;101048.25;;;17.76;40.33
56876;BME280;42622;49.972;8.452;2023-04-19T12:32:11;101053.50;;;17.87;40.49
56876;BME280;42622;49.972;8.452;2023-04-19T12:34:37;101049.00;;;17.57;43.55
56876;BME280;42622;49.972;8.452;2023-04-19T12:37:06;101044.97;;;16.90;46.70
56876;BME280;42622;49.972;8.452;2023-04-19T12:39:36;101049.47;;;16.46;49.35
56876;BME280;42622;49.972;8.452;2023-04-19T12:42:03;101044.63;;;15.96;49.75
56876;BME280;42622;49.972;8.452;2023-04-19T12:44:30;101048.00;;;15.65;56.96
56876;BME280;42622;49.972;8.452;2023-04-19T12:46:56;101042.31;;;15.13;64.18
56876;BME280;42622;49.972;8.452;2023-04-19T12:49:23;101041.06;;;15.06;66.44
56876;BME280;42622;49.972;8.452;2023-04-19T12:51:49;101039.56;;;15.37;66.02
56876;BME280;42622;49.972;8.452;2023-04-19T12:54:15;101034.38;;;15.69;61.03
56876;BME280;42622;49.972;8.452;2023-04-19T12:56:40;101029.50;;;15.52;86.94
56876;BME280;42622;49.972;8.452;2023-04-19T12:59:06;101036.38;;;15.10;86.81
56876;BME280;42622;49.972;8.452;2023-04-19T13:01:32;101028.69;;;14.34;92.66
56876;BME280;42622;49.972;8.452;2023-04-19T13:03:59;101036.97;;;13.82;97.42